Limestone, Pennsylvania
Current Conditions -  °F | °C
As of 11:08 AM on Friday 24 Oct 2014 (Local Time) from KDUJ Reporting Station
Broken Clouds Broken Clouds  
Wind Chill: 43°   Ceiling: 1600
Heat Index: 47°   Visibility: 10mi
Dew Point: 40°   Wind: 9mph
Humidity: 77%   Direction: 320°NW
Pressure: 30.04"   Gusts: 22mph
Location:  41.13°N, 79.33°W
Report Text: KDUJ 241508Z AUTO 32008G19KT 10SM BKN016 08/04 A3004 RMK AO2 T00830044
Loading
Personal Weather Stations






























Interactive Weather Map
Tropical Storm Tracking
New forecast layout! Learn more

10-Day Weather Forecast

Advertisements
Track Severe Weather on mobile